createdAt,value
2019-04-29T00:00:00.115Z,2.60
2019-04-29T00:02:35.317Z,2.60
2019-04-29T00:05:05.947Z,2.90
2019-04-29T00:07:35.962Z,2.90
2019-04-29T00:10:09.110Z,3.30
2019-04-29T00:12:39.550Z,2.70
2019-04-29T00:15:31.706Z,2.62
2019-04-29T00:18:05.869Z,2.70
2019-04-29T00:20:43.851Z,3.00
2019-04-29T00:23:13.754Z,2.90
2019-04-29T00:25:43.777Z,3.00
2019-04-29T00:28:13.873Z,2.90
2019-04-29T00:30:44.277Z,2.83
2019-04-29T00:33:14.147Z,3.17
2019-04-29T00:35:43.974Z,2.85
2019-04-29T00:38:42.025Z,2.80
2019-04-29T00:41:49.083Z,3.10
2019-04-29T00:44:19.534Z,2.85
2019-04-29T00:46:49.651Z,2.90
2019-04-29T00:49:19.486Z,2.75
2019-04-29T00:51:49.311Z,3.10
2019-04-29T00:54:34.657Z,2.87
2019-04-29T00:57:04.759Z,2.83
2019-04-29T00:59:34.678Z,3.30
2019-04-29T01:02:07.078Z,3.00
2019-04-29T01:04:36.892Z,3.15
2019-04-29T01:07:06.842Z,3.08
2019-04-29T01:09:36.697Z,2.87
2019-04-29T01:12:07.220Z,3.12
2019-04-29T01:14:37.077Z,2.83
2019-04-29T01:17:06.994Z,3.12
2019-04-29T01:19:36.869Z,2.85
2019-04-29T01:22:07.829Z,2.80
2019-04-29T01:24:37.697Z,3.00
2019-04-29T01:27:20.986Z,3.02
2019-04-29T01:29:50.913Z,3.12
2019-04-29T01:32:20.850Z,3.30
2019-04-29T01:34:53.079Z,3.62
2019-04-29T01:37:35.965Z,3.20
2019-04-29T01:40:25.349Z,3.65
2019-04-29T01:42:55.253Z,3.45
2019-04-29T01:45:25.059Z,3.35
2019-04-29T01:47:54.931Z,3.17
2019-04-29T01:50:24.788Z,3.35
2019-04-29T01:52:54.636Z,3.20
2019-04-29T01:55:24.549Z,3.05
2019-04-29T01:57:54.434Z,3.30
2019-04-29T02:00:24.478Z,3.10
2019-04-29T02:02:54.468Z,3.65
2019-04-29T02:05:24.384Z,3.35
2019-04-29T02:07:54.203Z,3.40
2019-04-29T02:10:29.868Z,3.40
2019-04-29T02:12:59.815Z,3.50
2019-04-29T02:15:32.550Z,3.40
2019-04-29T02:18:02.482Z,3.67
2019-04-29T02:20:32.406Z,3.25
2019-04-29T02:23:26.862Z,3.47
2019-04-29T02:25:56.834Z,3.58
2019-04-29T02:28:26.734Z,3.67
2019-04-29T02:30:56.728Z,3.85
2019-04-29T02:33:26.713Z,3.58
2019-04-29T02:35:56.565Z,3.75
2019-04-29T02:38:49.200Z,3.42
2019-04-29T02:41:38.059Z,3.77
2019-04-29T02:44:09.536Z,3.67
2019-04-29T02:46:39.354Z,3.90
2019-04-29T02:49:09.275Z,3.77
2019-04-29T02:51:51.523Z,3.95
2019-04-29T02:54:22.110Z,4.28
2019-04-29T02:57:01.492Z,4.20
2019-04-29T02:59:36.852Z,4.20
2019-04-29T03:02:25.741Z,4.40
2019-04-29T03:05:16.681Z,4.67
2019-04-29T03:07:46.538Z,4.62
2019-04-29T03:10:16.504Z,4.42
2019-04-29T03:12:46.766Z,4.50
2019-04-29T03:15:33.372Z,4.62
2019-04-29T03:18:03.644Z,4.12
2019-04-29T03:20:48.860Z,4.70
2019-04-29T03:23:20.473Z,4.37
2019-04-29T03:25:50.484Z,4.53
2019-04-29T03:28:20.377Z,4.45
2019-04-29T03:30:51.399Z,4.22
2019-04-29T03:33:21.395Z,4.45
2019-04-29T03:35:51.301Z,5.00
2019-04-29T03:38:21.141Z,4.63
2019-04-29T03:40:50.974Z,5.10
2019-04-29T03:43:20.786Z,5.10
2019-04-29T03:45:50.769Z,5.35
2019-04-29T03:48:20.684Z,5.65
2019-04-29T03:50:53.425Z,5.57
2019-04-29T03:53:27.738Z,5.20
2019-04-29T03:55:56.769Z,5.53
2019-04-29T03:58:27.498Z,5.45
2019-04-29T04:01:17.940Z,5.72
2019-04-29T04:03:55.733Z,5.80
2019-04-29T04:06:33.062Z,5.70
2019-04-29T04:09:17.835Z,6.33
2019-04-29T04:11:47.637Z,5.87
2019-04-29T04:14:18.586Z,5.80
2019-04-29T04:17:06.235Z,6.17
2019-04-29T04:19:36.083Z,6.05
2019-04-29T04:22:05.992Z,6.30
2019-04-29T04:24:35.844Z,5.80
2019-04-29T04:27:05.688Z,5.58
2019-04-29T04:29:35.518Z,5.40
2019-04-29T04:32:05.568Z,6.10
2019-04-29T04:34:35.554Z,5.67
2019-04-29T04:37:05.488Z,5.50
2019-04-29T04:39:37.037Z,5.37
2019-04-29T04:42:06.891Z,5.80
2019-04-29T04:44:49.916Z,5.43
2019-04-29T04:47:20.587Z,5.60
2019-04-29T04:49:50.465Z,5.42
2019-04-29T04:52:20.375Z,5.60
2019-04-29T04:54:52.221Z,5.37
2019-04-29T04:57:22.060Z,5.10
2019-04-29T04:59:51.847Z,5.28
2019-04-29T05:02:23.319Z,5.65
2019-04-29T05:04:53.106Z,5.00
2019-04-29T05:07:23.273Z,5.10
2019-04-29T05:09:53.130Z,5.60
2019-04-29T05:12:22.999Z,6.22
2019-04-29T05:14:53.010Z,6.37
2019-04-29T05:17:22.958Z,5.92
2019-04-29T05:19:52.761Z,5.60
2019-04-29T05:22:22.633Z,6.00
2019-04-29T05:24:52.447Z,6.35
2019-04-29T05:27:22.447Z,6.20
2019-04-29T05:29:52.281Z,6.30
2019-04-29T05:32:22.201Z,6.28
2019-04-29T05:34:55.116Z,6.78
2019-04-29T05:37:44.315Z,6.60
2019-04-29T05:40:33.426Z,7.95
2019-04-29T05:43:05.100Z,8.33
2019-04-29T05:45:51.522Z,8.80
2019-04-29T05:48:21.557Z,10.10
2019-04-29T05:50:57.237Z,9.90
2019-04-29T05:53:47.301Z,9.78
2019-04-29T05:56:17.611Z,9.98
2019-04-29T05:58:47.440Z,9.80
2019-04-29T06:01:21.554Z,9.55
2019-04-29T06:03:51.511Z,9.70
2019-04-29T06:06:54.298Z,9.60
2019-04-29T06:09:24.195Z,8.60
2019-04-29T06:11:54.149Z,8.18
2019-04-29T06:14:24.012Z,8.33
2019-04-29T06:16:57.571Z,8.78
2019-04-29T06:19:25.513Z,8.45
2019-04-29T06:21:55.440Z,9.25
2019-04-29T06:24:25.281Z,9.08
2019-04-29T06:26:55.111Z,9.23
2019-04-29T06:29:25.026Z,9.50
2019-04-29T06:31:55.005Z,9.63
2019-04-29T06:34:24.919Z,9.88
2019-04-29T06:36:54.846Z,9.40
2019-04-29T06:39:25.911Z,9.38
2019-04-29T06:41:55.862Z,9.30
2019-04-29T06:44:25.808Z,9.78
2019-04-29T06:46:56.350Z,9.00
2019-04-29T06:49:26.571Z,9.63
2019-04-29T06:51:56.556Z,10.18
2019-04-29T06:54:26.403Z,9.45
2019-04-29T06:56:56.341Z,9.93
2019-04-29T06:59:26.161Z,10.43
2019-04-29T07:01:56.076Z,9.90
2019-04-29T07:04:26.074Z,10.32
2019-04-29T07:06:57.551Z,9.15
2019-04-29T07:09:28.093Z,9.88
2019-04-29T07:12:01.298Z,9.80
2019-04-29T07:14:32.913Z,10.40
2019-04-29T07:17:05.647Z,10.40
2019-04-29T07:19:32.792Z,9.98
2019-04-29T07:22:02.673Z,9.83
2019-04-29T07:24:32.550Z,10.48
2019-04-29T07:27:04.326Z,9.60
2019-04-29T07:29:34.019Z,10.80
2019-04-29T07:32:04.788Z,10.15
2019-04-29T07:34:39.265Z,10.32
2019-04-29T07:37:08.173Z,10.45
2019-04-29T07:39:38.044Z,10.75
2019-04-29T07:42:07.976Z,10.58
2019-04-29T07:44:48.942Z,10.55
2019-04-29T07:47:18.428Z,10.93
2019-04-29T07:49:51.483Z,10.53
2019-04-29T07:52:19.811Z,10.38
2019-04-29T07:54:55.092Z,10.83
2019-04-29T07:57:21.269Z,11.10
2019-04-29T07:59:52.082Z,11.25
2019-04-29T08:02:21.946Z,11.08
2019-04-29T08:04:51.885Z,11.00
2019-04-29T08:07:21.756Z,10.60
2019-04-29T08:09:53.198Z,11.43
2019-04-29T08:12:25.443Z,11.50
2019-04-29T08:14:58.578Z,11.57
2019-04-29T08:17:27.474Z,12.20
2019-04-29T08:20:00.628Z,11.57
2019-04-29T08:22:29.358Z,11.68
2019-04-29T08:24:59.433Z,11.43
2019-04-29T08:27:39.838Z,12.07
2019-04-29T08:30:00.914Z,11.25
2019-04-29T08:32:36.372Z,9.68
2019-04-29T08:35:04.356Z,9.10
2019-04-29T08:37:34.237Z,9.53
2019-04-29T08:40:15.860Z,9.50
2019-04-29T08:42:41.397Z,9.93
2019-04-29T08:45:27.144Z,9.38
2019-04-29T08:47:57.358Z,9.83
2019-04-29T08:50:27.364Z,9.05
2019-04-29T08:52:57.296Z,8.70
2019-04-29T08:55:30.989Z,8.75
2019-04-29T08:57:58.898Z,8.43
2019-04-29T09:00:28.773Z,7.97
2019-04-29T09:02:58.638Z,8.23
2019-04-29T09:05:28.602Z,8.10
2019-04-29T09:07:59.114Z,7.55
2019-04-29T09:10:33.045Z,7.92
2019-04-29T09:13:00.982Z,8.18
2019-04-29T09:15:30.938Z,8.20
2019-04-29T09:18:00.768Z,7.45
2019-04-29T09:20:30.802Z,7.60
2019-04-29T09:23:03.963Z,7.25
2019-04-29T09:26:02.917Z,7.92
2019-04-29T09:28:30.328Z,7.25
2019-04-29T09:31:00.209Z,7.12
2019-04-29T09:33:30.138Z,7.90
2019-04-29T09:35:59.961Z,6.90
2019-04-29T09:38:32.459Z,6.67
2019-04-29T09:41:19.128Z,6.35
2019-04-29T09:44:20.324Z,6.20
2019-04-29T09:46:50.217Z,6.60
2019-04-29T09:49:20.214Z,6.75
2019-04-29T09:51:50.163Z,6.42
2019-04-29T09:54:20.012Z,6.45
2019-04-29T09:56:50.086Z,7.03
2019-04-29T09:59:41.857Z,6.30
2019-04-29T10:02:37.115Z,5.72
2019-04-29T10:05:25.580Z,5.87
2019-04-29T10:07:55.636Z,6.05
2019-04-29T10:10:25.817Z,5.33
2019-04-29T10:12:55.978Z,6.15
2019-04-29T10:15:34.944Z,5.58
2019-04-29T10:18:12.237Z,5.60
2019-04-29T10:20:54.431Z,5.78
2019-04-29T10:23:24.385Z,6.80
2019-04-29T10:25:54.393Z,8.33
2019-04-29T10:28:24.316Z,5.80
2019-04-29T10:30:54.335Z,5.27
2019-04-29T10:33:25.590Z,5.30
2019-04-29T10:35:55.561Z,4.75
2019-04-29T10:38:25.681Z,4.42
2019-04-29T10:41:07.601Z,4.53
2019-04-29T10:43:55.617Z,4.47
2019-04-29T10:46:55.660Z,4.50
2019-04-29T10:49:34.715Z,4.47
2019-04-29T10:52:04.676Z,4.40
2019-04-29T10:54:35.826Z,4.53
2019-04-29T10:57:05.806Z,4.10
2019-04-29T10:59:40.809Z,3.95
2019-04-29T11:02:49.409Z,4.17
2019-04-29T11:05:30.297Z,4.20
2019-04-29T11:08:19.687Z,4.67
2019-04-29T11:10:51.242Z,7.97
2019-04-29T11:13:21.173Z,4.67
2019-04-29T11:15:51.295Z,3.65
2019-04-29T11:18:23.291Z,4.20
2019-04-29T11:20:53.665Z,3.50
2019-04-29T11:23:31.155Z,4.00
2019-04-29T11:28:52.352Z,3.90
2019-04-29T11:31:22.436Z,3.70
2019-04-29T11:34:18.043Z,3.60
2019-04-29T11:36:48.324Z,3.40
2019-04-29T11:39:18.542Z,3.55
2019-04-29T11:41:50.062Z,2.95
2019-04-29T11:44:21.914Z,3.47
2019-04-29T11:46:52.058Z,2.77
2019-04-29T11:49:28.178Z,2.95
2019-04-29T11:52:09.120Z,2.72
2019-04-29T11:54:29.890Z,2.83
2019-04-29T11:56:59.830Z,2.52
2019-04-29T11:59:51.468Z,2.55
2019-04-29T12:02:45.923Z,2.73
2019-04-29T12:05:44.775Z,2.42
2019-04-29T12:08:17.069Z,2.62
2019-04-29T12:10:51.794Z,2.70
2019-04-29T12:13:28.134Z,2.50
2019-04-29T12:16:19.736Z,2.60
2019-04-29T12:18:52.182Z,2.60
2019-04-29T12:21:30.244Z,2.22
2019-04-29T12:24:01.754Z,2.83
2019-04-29T12:26:35.622Z,2.50
2019-04-29T12:29:03.506Z,2.37
2019-04-29T12:31:52.592Z,2.33
2019-04-29T12:34:51.269Z,2.70
2019-04-29T12:37:52.715Z,2.80
2019-04-29T12:40:45.654Z,2.45
2019-04-29T12:43:42.345Z,2.72
2019-04-29T12:46:17.010Z,2.40
2019-04-29T12:48:47.018Z,2.85
2019-04-29T12:51:17.236Z,2.42
2019-04-29T12:53:47.223Z,2.95
2019-04-29T12:56:18.962Z,2.92
2019-04-29T12:58:50.671Z,2.95
2019-04-29T13:01:50.842Z,2.70
2019-04-29T13:04:28.021Z,2.70
2019-04-29T13:07:06.993Z,2.77
2019-04-29T13:09:40.838Z,2.30
2019-04-29T13:12:19.209Z,2.50
2019-04-29T13:15:08.084Z,2.40
2019-04-29T13:18:03.727Z,2.63
2019-04-29T13:20:32.548Z,2.62
2019-04-29T13:23:16.992Z,2.70
2019-04-29T13:25:34.163Z,2.37
2019-04-29T13:28:05.362Z,2.60
2019-04-29T13:30:35.392Z,2.62
2019-04-29T13:33:22.209Z,2.40
2019-04-29T13:35:37.053Z,2.83
2019-04-29T13:38:07.084Z,2.87
2019-04-29T13:40:37.780Z,2.90
2019-04-29T13:43:08.780Z,3.05
2019-04-29T13:45:49.572Z,2.77
2019-04-29T13:48:54.828Z,3.10
2019-04-29T13:51:14.357Z,2.80
2019-04-29T13:53:44.477Z,2.93
2019-04-29T13:56:32.538Z,2.77
2019-04-29T13:58:46.267Z,2.70
2019-04-29T14:01:57.842Z,2.80
2019-04-29T14:04:25.972Z,2.95
2019-04-29T14:06:57.408Z,3.10
2019-04-29T14:09:28.519Z,3.00
2019-04-29T14:12:02.931Z,2.90
2019-04-29T14:14:30.082Z,3.45
2019-04-29T14:17:17.064Z,3.37
2019-04-29T14:19:40.778Z,3.33
2019-04-29T14:22:03.421Z,3.20
2019-04-29T14:24:33.354Z,3.40
2019-04-29T14:27:03.292Z,3.30
2019-04-29T14:29:33.304Z,3.92
2019-04-29T14:32:03.402Z,3.67
2019-04-29T14:34:48.223Z,3.90
2019-04-29T14:37:23.517Z,4.20
2019-04-29T14:39:49.957Z,4.00
2019-04-29T14:42:30.191Z,4.12
2019-04-29T14:45:17.769Z,4.40
2019-04-29T14:47:56.335Z,5.15
2019-04-29T14:50:26.336Z,4.70
2019-04-29T14:52:56.377Z,4.72
2019-04-29T14:55:27.083Z,4.90
2019-04-29T14:57:57.224Z,5.53
2019-04-29T15:00:41.995Z,4.75
2019-04-29T15:03:12.856Z,4.40
2019-04-29T15:05:43.265Z,4.40
2019-04-29T15:08:14.334Z,4.12
2019-04-29T15:10:48.666Z,5.20
2019-04-29T15:13:21.585Z,4.33
2019-04-29T15:16:04.580Z,4.75
2019-04-29T15:18:56.750Z,4.60
2019-04-29T15:21:43.909Z,5.80
2019-04-29T15:24:12.524Z,4.80
2019-04-29T15:26:42.769Z,5.07
2019-04-29T15:29:12.831Z,4.58
2019-04-29T15:31:47.020Z,4.70
2019-04-29T15:34:14.695Z,4.12
2019-04-29T15:36:45.656Z,4.20
2019-04-29T15:39:15.940Z,4.17
2019-04-29T15:41:46.186Z,4.40
2019-04-29T15:44:20.143Z,4.10
2019-04-29T15:46:48.215Z,4.20
2019-04-29T15:49:20.224Z,4.67
2019-04-29T15:51:51.069Z,4.67
2019-04-29T15:54:25.784Z,4.97
2019-04-29T15:58:40.029Z,5.17
2019-04-29T16:01:14.887Z,5.40
2019-04-29T16:03:42.020Z,5.25
2019-04-29T16:06:26.371Z,5.87
2019-04-29T16:09:04.291Z,6.35
2019-04-29T16:12:15.526Z,5.75
2019-04-29T16:14:48.876Z,6.28
2019-04-29T16:17:20.519Z,6.30
2019-04-29T16:19:48.549Z,6.30
2019-04-29T16:22:22.222Z,7.00
2019-04-29T16:24:58.950Z,5.80
2019-04-29T16:27:24.235Z,6.50
2019-04-29T16:29:56.844Z,5.62
2019-04-29T16:32:36.078Z,5.77
2019-04-29T16:35:06.042Z,10.20
2019-04-29T16:37:35.976Z,6.67
2019-04-29T16:43:11.047Z,6.40
2019-04-29T16:48:19.690Z,5.87
2019-04-29T16:50:52.276Z,5.65
2019-04-29T16:53:22.529Z,6.03
2019-04-29T16:55:53.418Z,5.30
2019-04-29T16:58:23.345Z,5.70
2019-04-29T17:00:54.952Z,6.00
2019-04-29T17:03:25.263Z,5.80
2019-04-29T17:05:55.186Z,5.90
2019-04-29T17:08:30.291Z,5.53
2019-04-29T17:11:12.098Z,6.25
2019-04-29T17:13:40.447Z,5.50
2019-04-29T17:16:13.764Z,5.87
2019-04-29T17:18:43.679Z,5.87
2019-04-29T17:21:13.990Z,6.00
2019-04-29T17:23:43.855Z,6.05
2019-04-29T17:26:14.916Z,6.42
2019-04-29T17:28:58.789Z,5.90
2019-04-29T17:31:50.395Z,6.17
2019-04-29T17:34:56.127Z,6.78
2019-04-29T17:35:17.951Z,5.55
2019-04-29T17:36:58.492Z,6.67
2019-04-29T17:39:28.983Z,6.47
2019-04-29T17:41:58.875Z,6.55
2019-04-29T17:44:37.561Z,6.40
2019-04-29T17:47:13.803Z,6.85
2019-04-29T17:50:06.620Z,7.00
2019-04-29T17:52:37.242Z,7.80
2019-04-29T17:55:15.063Z,7.35
2019-04-29T17:57:59.959Z,8.10
2019-04-29T18:00:58.490Z,7.00
2019-04-29T18:03:51.407Z,7.50
2019-04-29T18:06:39.954Z,8.83
2019-04-29T18:09:28.841Z,8.65
2019-04-29T18:12:01.858Z,8.47
2019-04-29T18:14:37.880Z,8.28
2019-04-29T18:17:05.018Z,7.90
2019-04-29T18:19:47.290Z,8.23
2019-04-29T18:22:48.562Z,8.93
2019-04-29T18:25:30.974Z,9.07
2019-04-29T18:28:01.354Z,9.38
2019-04-29T18:30:35.995Z,10.20
2019-04-29T18:33:02.947Z,10.58
2019-04-29T18:35:32.870Z,9.20
2019-04-29T18:38:02.768Z,9.23
2019-04-29T18:40:35.467Z,9.93
2019-04-29T18:43:06.954Z,9.83
2019-04-29T18:45:36.974Z,9.18
2019-04-29T18:48:09.111Z,8.93
2019-04-29T18:50:38.999Z,10.50
2019-04-29T18:53:09.152Z,10.50
2019-04-29T18:55:39.151Z,9.83
2019-04-29T18:58:09.102Z,9.50
2019-04-29T19:00:39.080Z,10.20
2019-04-29T19:03:09.091Z,9.33
2019-04-29T19:05:45.659Z,10.53
2019-04-29T19:08:22.818Z,10.63
2019-04-29T19:10:51.044Z,10.05
2019-04-29T19:13:18.915Z,9.70
2019-04-29T19:15:49.032Z,9.93
2019-04-29T19:18:21.198Z,10.50
2019-04-29T19:20:52.647Z,9.98
2019-04-29T19:23:24.950Z,9.60
2019-04-29T19:25:54.570Z,9.13
2019-04-29T19:28:30.131Z,9.28
2019-04-29T19:31:02.967Z,9.53
2019-04-29T19:33:30.829Z,9.68
2019-04-29T19:36:00.770Z,9.50
2019-04-29T19:38:30.785Z,9.73
2019-04-29T19:41:00.820Z,9.73
2019-04-29T19:43:30.870Z,9.60
2019-04-29T19:46:02.622Z,9.88
2019-04-29T19:48:34.794Z,10.00
2019-04-29T19:51:14.399Z,10.60
2019-04-29T19:53:42.549Z,10.18
2019-04-29T19:56:12.125Z,10.28
2019-04-29T19:58:40.268Z,10.45
2019-04-29T20:01:18.740Z,10.60
2019-04-29T20:04:22.012Z,10.13
2019-04-29T20:06:49.870Z,10.05
2019-04-29T20:09:23.744Z,9.98
2019-04-29T20:11:55.844Z,10.30
2019-04-29T20:14:29.622Z,11.10
2019-04-29T20:17:17.233Z,11.30
2019-04-29T20:19:59.860Z,11.83
2019-04-29T20:22:27.075Z,11.43
2019-04-29T20:24:57.309Z,10.82
2019-04-29T20:27:30.898Z,11.50
2019-04-29T20:29:59.086Z,11.83
2019-04-29T20:32:31.879Z,12.55
2019-04-29T20:35:07.090Z,11.78
2019-04-29T20:37:33.584Z,13.15
2019-04-29T20:40:05.741Z,14.15
2019-04-29T20:42:36.096Z,15.88
2019-04-29T20:45:07.019Z,14.28
2019-04-29T20:47:40.617Z,15.72
2019-04-29T20:50:13.473Z,15.80
2019-04-29T20:52:52.199Z,15.23
2019-04-29T20:55:22.147Z,17.50
2019-04-29T20:57:53.998Z,16.82
2019-04-29T21:00:26.925Z,19.15
2019-04-29T21:02:58.288Z,17.63
2019-04-29T21:05:31.305Z,19.30
2019-04-29T21:08:09.741Z,18.80
2019-04-29T21:10:37.997Z,19.17
2019-04-29T21:13:25.837Z,20.40
2019-04-29T21:16:00.538Z,20.32
2019-04-29T21:18:30.519Z,23.50
2019-04-29T21:21:04.591Z,20.70
2019-04-29T21:23:35.422Z,21.42
2019-04-29T21:26:05.337Z,22.07
2019-04-29T21:28:38.104Z,22.17
2019-04-29T21:31:11.602Z,23.30
2019-04-29T21:33:40.546Z,23.10
2019-04-29T21:36:30.700Z,25.27
2019-04-29T21:39:09.610Z,24.75
2019-04-29T21:41:45.909Z,25.60
2019-04-29T21:44:15.824Z,25.67
2019-04-29T21:46:45.772Z,25.10
2019-04-29T21:49:15.718Z,26.87
2019-04-29T21:51:46.610Z,25.48
2019-04-29T21:54:17.029Z,24.67
2019-04-29T21:56:48.067Z,25.55
2019-04-29T21:59:18.130Z,26.17
2019-04-29T22:01:48.122Z,25.02
2019-04-29T22:04:17.997Z,24.77
2019-04-29T22:06:47.874Z,23.95
2019-04-29T22:09:20.384Z,24.50
2019-04-29T22:11:50.315Z,24.47
2019-04-29T22:14:20.242Z,24.52
2019-04-29T22:16:54.286Z,24.32
2019-04-29T22:19:26.027Z,24.30
2019-04-29T22:21:57.875Z,22.67
2019-04-29T22:24:26.175Z,22.60
2019-04-29T22:27:04.221Z,23.07
2019-04-29T22:29:32.136Z,22.67
2019-04-29T22:31:59.823Z,22.20
2019-04-29T22:34:29.740Z,23.47
2019-04-29T22:37:01.145Z,23.02
2019-04-29T22:39:35.614Z,23.38
2019-04-29T22:42:14.121Z,22.60
2019-04-29T22:44:45.687Z,21.30
2019-04-29T22:47:17.295Z,22.07
2019-04-29T22:49:47.498Z,22.00
2019-04-29T22:52:17.472Z,22.20
2019-04-29T22:54:47.373Z,21.80
2019-04-29T22:57:17.338Z,21.82
2019-04-29T22:59:49.512Z,21.50
2019-04-29T23:02:20.075Z,22.02
2019-04-29T23:04:53.706Z,21.95
2019-04-29T23:07:23.466Z,21.73
2019-04-29T23:09:53.431Z,21.15
2019-04-29T23:12:24.768Z,20.75
2019-04-29T23:14:56.510Z,20.65
2019-04-29T23:17:26.561Z,21.02
2019-04-29T23:20:01.559Z,20.72
2019-04-29T23:22:52.617Z,22.42
2019-04-29T23:25:35.432Z,20.88
2019-04-29T23:28:05.435Z,21.87
2019-04-29T23:30:35.380Z,21.97
2019-04-29T23:33:05.170Z,21.87
2019-04-29T23:35:35.051Z,23.15
2019-04-29T23:38:09.168Z,22.65
2019-04-29T23:40:36.565Z,22.67
2019-04-29T23:43:06.432Z,22.30
2019-04-29T23:45:36.283Z,22.73
2019-04-29T23:48:06.346Z,22.27
2019-04-29T23:50:37.347Z,23.02
2019-04-29T23:53:07.174Z,21.93
2019-04-29T23:55:37.062Z,22.55
2019-04-29T23:58:18.363Z,22.55
